Terminal Aerodrome Forecast
Issued by NWS Spokane, WA

Home | Current Version | Previous Version | Text Only | Print | Product List | Glossary On
Versions: 1 2 3 4 5 6 7 8 9 10 11 12 13 14 15
000
FTUS46 KOTX 221138
TAFEAT
TAF
KEAT 221138Z 2212/2312 30005KT P6SM VCSH SCT025 OVC040
      TEMPO 2212/2215 4SM -SHSN OVC025
     FM221700 29007KT P6SM SCT100
     FM230000 30006KT P6SM FEW200=

USA.gov is the U.S. government's official web portal to all federal, state and local government web resources and services.